Time;durP1;ratioP1;P1;durP2;ratioP2;P2;SDS_P1;SDS_P2;PMS_P1;PMS_P2;Temp;Humidity;BMP_temperature;BMP_pressure;BME280_temperature;BME280_humidity;BME280_pressure;Samples;Min_cycle;Max_cycle;Signal;HPM_P1;HPM_P2
2021/11/14 00:02:25;;;;;;;137.75;52.42;;;0.90;99.90;;;;;;5032747;28;20045;-74
2021/11/14 00:04:50;;;;;;;134.20;51.20;;;0.90;99.90;;;;;;5031406;28;20430;-74
2021/11/14 00:07:17;;;;;;;128.48;54.13;;;0.90;99.90;;;;;;5032682;28;20391;-74
2021/11/14 00:09:44;;;;;;;133.77;53.38;;;0.90;99.90;;;;;;5032488;28;20053;-74
2021/11/14 00:12:10;;;;;;;109.35;49.08;;;0.90;99.90;;;;;;5036724;28;20060;-74
2021/11/14 00:14:36;;;;;;;128.00;55.88;;;1.00;99.90;;;;;;5036567;28;20057;-73
2021/11/14 00:17:02;;;;;;;131.25;56.38;;;1.00;99.90;;;;;;5036714;28;20075;-74
2021/11/14 00:19:28;;;;;;;164.65;72.32;;;1.10;99.90;;;;;;5036386;28;20029;-74
2021/11/14 00:21:54;;;;;;;131.23;58.20;;;1.10;99.90;;;;;;5036473;28;20025;-74
2021/11/14 00:24:19;;;;;;;170.25;74.88;;;1.20;99.90;;;;;;5035194;28;20018;-74
2021/11/14 00:26:45;;;;;;;176.60;82.70;;;1.20;99.90;;;;;;5036479;28;20021;-74
2021/11/14 00:29:12;;;;;;;163.23;79.53;;;1.20;99.90;;;;;;5036196;28;20392;-73
2021/11/14 00:31:38;;;;;;;131.63;62.75;;;1.20;99.90;;;;;;5035153;28;20036;-74
2021/11/14 00:34:05;;;;;;;119.57;58.92;;;1.30;99.90;;;;;;5036213;28;20038;-74
2021/11/14 00:36:37;;;;;;;117.70;56.47;;;1.30;99.90;;;;;;5036144;28;20079;-74
2021/11/14 00:39:07;;;;;;;112.38;53.85;;;1.30;99.90;;;;;;5035051;28;20395;-74
2021/11/14 00:41:32;;;;;;;124.80;61.30;;;1.40;99.90;;;;;;5034826;28;20022;-74
2021/11/14 00:43:58;;;;;;;136.93;65.97;;;1.40;99.90;;;;;;5036048;28;20029;-73
2021/11/14 00:46:24;;;;;;;118.70;59.80;;;1.40;99.90;;;;;;5036148;28;20022;-74
2021/11/14 00:48:51;;;;;;;119.38;56.63;;;1.40;99.90;;;;;;5036015;28;20067;-74
2021/11/14 00:51:24;;;;;;;115.30;52.33;;;1.50;99.90;;;;;;5035970;28;20111;-73
2021/11/14 00:53:51;;;;;;;112.63;52.47;;;1.50;99.90;;;;;;5035963;28;20078;-74
2021/11/14 00:56:17;;;;;;;117.72;57.50;;;1.50;99.90;;;;;;5035995;28;20021;-74
2021/11/14 00:58:43;;;;;;;135.23;65.50;;;1.50;99.90;;;;;;5035819;28;20491;-74
2021/11/14 01:01:08;;;;;;;146.15;72.40;;;1.60;99.90;;;;;;5035811;28;20021;-74
2021/11/14 01:03:34;;;;;;;164.10;78.90;;;1.60;99.90;;;;;;5035742;28;20018;-74
2021/11/14 01:06:01;;;;;;;195.60;96.38;;;1.60;99.90;;;;;;5035720;28;20018;-74
2021/11/14 01:08:28;;;;;;;150.07;74.07;;;1.60;99.90;;;;;;5035601;28;20494;-74
2021/11/14 01:10:55;;;;;;;130.80;56.45;;;1.60;99.90;;;;;;5035549;28;20038;-74
2021/11/14 01:13:22;;;;;;;124.10;52.78;;;1.70;99.90;;;;;;5035648;28;20018;-73
2021/11/14 01:15:50;;;;;;;120.78;53.75;;;1.60;99.90;;;;;;5035555;28;20029;-73
2021/11/14 01:18:17;;;;;;;117.97;54.10;;;1.70;99.90;;;;;;5035537;28;20100;-74
2021/11/14 01:20:50;;;;;;;121.30;52.90;;;1.70;99.90;;;;;;5035212;28;20029;-74
2021/11/14 01:23:17;;;;;;;130.13;53.33;;;1.70;99.90;;;;;;5035437;28;20525;-73
2021/11/14 01:25:44;;;;;;;120.68;54.42;;;1.70;99.90;;;;;;5035300;28;20017;-74
2021/11/14 01:28:10;;;;;;;125.20;54.83;;;1.80;99.90;;;;;;5034065;28;20025;-74
2021/11/14 01:30:40;;;;;;;138.90;61.55;;;1.80;99.90;;;;;;5035211;28;20486;-74
2021/11/14 01:33:07;;;;;;;140.85;61.63;;;1.70;99.90;;;;;;5033957;28;20017;-73
2021/11/14 01:35:34;;;;;;;170.40;72.25;;;1.80;99.90;;;;;;5034920;28;20059;-74
2021/11/14 01:38:00;;;;;;;143.95;64.20;;;1.70;99.90;;;;;;5031380;28;20024;-73
2021/11/14 01:40:34;;;;;;;161.73;68.68;;;1.70;99.90;;;;;;5016140;28;20026;-74
2021/11/14 01:43:00;;;;;;;165.18;71.68;;;1.80;99.90;;;;;;5015342;28;20033;-73
2021/11/14 01:45:26;;;;;;;137.27;65.22;;;1.80;99.90;;;;;;5029732;28;20442;-74
2021/11/14 01:47:52;;;;;;;152.45;65.78;;;1.80;99.90;;;;;;5034927;28;20479;-73
2021/11/14 01:50:19;;;;;;;139.70;68.47;;;1.80;99.90;;;;;;5034713;28;20025;-74
2021/11/14 01:52:47;;;;;;;130.30;61.85;;;1.80;99.90;;;;;;5034846;28;20443;-74
2021/11/14 01:55:16;;;;;;;151.00;66.25;;;1.80;99.90;;;;;;5033270;28;20041;-74
2021/11/14 01:57:42;;;;;;;129.60;60.13;;;1.80;99.90;;;;;;5034746;28;20026;-74
2021/11/14 02:00:25;;;;;;;128.07;56.75;;;1.90;99.90;;;;;;5034646;28;20086;-74
2021/11/14 02:02:50;;;;;;;134.90;60.70;;;1.90;99.90;;;;;;5034745;28;20023;-74
2021/11/14 02:05:22;;;;;;;128.73;59.53;;;2.00;99.90;;;;;;5033304;28;20090;-74
2021/11/14 02:07:52;;;;;;;156.18;68.40;;;2.00;99.90;;;;;;5034505;28;20120;-74
2021/11/14 02:10:18;;;;;;;144.05;64.10;;;2.10;99.90;;;;;;5034436;28;20029;-74
2021/11/14 02:12:44;;;;;;;135.93;64.43;;;2.10;99.90;;;;;;5034489;28;20104;-74
2021/11/14 02:15:09;;;;;;;128.40;58.88;;;2.10;99.90;;;;;;5034325;28;20167;-74
2021/11/14 02:17:35;;;;;;;140.82;62.40;;;2.10;99.90;;;;;;5034396;28;20070;-74
2021/11/14 02:20:03;;;;;;;132.23;59.50;;;2.10;99.90;;;;;;5027131;28;20041;-74
2021/11/14 02:22:29;;;;;;;121.38;58.70;;;2.10;99.90;;;;;;5014468;28;20041;-74
2021/11/14 02:24:54;;;;;;;120.20;56.08;;;2.10;99.90;;;;;;5014409;28;20030;-74
2021/11/14 02:27:20;;;;;;;119.95;54.08;;;2.20;99.90;;;;;;5014540;28;20022;-74
2021/11/14 02:29:46;;;;;;;122.10;59.13;;;2.20;99.90;;;;;;5014206;28;20054;-74
2021/11/14 02:32:12;;;;;;;121.55;57.00;;;2.20;99.90;;;;;;5013910;28;20058;-74
2021/11/14 02:34:38;;;;;;;122.05;53.45;;;2.30;99.90;;;;;;5012972;28;20080;-73
2021/11/14 02:37:04;;;;;;;122.85;55.83;;;2.30;99.90;;;;;;5014242;28;20014;-73
2021/11/14 02:39:30;;;;;;;133.35;57.67;;;2.30;99.90;;;;;;5014190;28;20113;-74
2021/11/14 02:41:56;;;;;;;122.03;56.33;;;2.30;99.90;;;;;;5014121;28;20101;-73
2021/11/14 02:44:21;;;;;;;117.97;55.40;;;2.40;99.90;;;;;;5014211;28;20415;-73
2021/11/14 02:46:47;;;;;;;118.45;56.15;;;2.40;99.90;;;;;;5014143;28;20028;-73
2021/11/14 02:49:13;;;;;;;115.72;53.97;;;2.40;99.90;;;;;;5012903;28;20040;-73
2021/11/14 02:51:39;;;;;;;116.05;54.63;;;2.40;99.90;;;;;;5014050;28;20476;-74
2021/11/14 02:54:05;;;;;;;110.30;52.17;;;2.40;99.90;;;;;;5013842;28;20109;-74
2021/11/14 02:56:31;;;;;;;118.78;54.17;;;2.50;99.90;;;;;;5013847;28;20056;-74
2021/11/14 02:58:58;;;;;;;124.30;56.28;;;2.50;99.90;;;;;;5013895;28;20045;-73
2021/11/14 03:01:29;;;;;;;124.03;57.45;;;2.50;99.90;;;;;;5013836;28;20030;-74
2021/11/14 03:03:56;;;;;;;122.78;55.58;;;2.50;99.90;;;;;;5012548;28;20046;-74
2021/11/14 03:06:24;;;;;;;109.40;53.38;;;2.50;99.90;;;;;;5012597;28;20487;-74
2021/11/14 03:08:49;;;;;;;117.28;54.45;;;2.60;99.90;;;;;;5012345;28;20022;-74
2021/11/14 03:11:16;;;;;;;121.32;55.58;;;2.60;99.90;;;;;;5013448;28;20091;-74
2021/11/14 03:13:41;;;;;;;117.18;56.30;;;2.60;99.90;;;;;;5013510;28;20151;-74
2021/11/14 03:16:11;;;;;;;112.13;54.65;;;2.60;99.90;;;;;;5013639;28;20487;-74
2021/11/14 03:18:37;;;;;;;109.57;54.75;;;2.60;99.90;;;;;;5014125;28;20026;-74
2021/11/14 03:21:04;;;;;;;120.18;56.90;;;2.60;99.90;;;;;;5013554;28;20030;-74
2021/11/14 03:23:30;;;;;;;127.80;54.53;;;2.60;99.90;;;;;;5013423;28;20484;-74
2021/11/14 03:25:58;;;;;;;117.82;57.90;;;2.60;99.90;;;;;;5012081;28;20037;-74
2021/11/14 03:28:24;;;;;;;113.25;56.33;;;2.70;99.90;;;;;;5013507;28;20559;-74
2021/11/14 03:30:52;;;;;;;116.50;57.42;;;2.70;99.90;;;;;;5013237;28;20080;-74
2021/11/14 03:33:19;;;;;;;121.05;59.28;;;2.70;99.90;;;;;;5013341;28;20072;-74
2021/11/14 03:35:58;;;;;;;119.03;59.97;;;2.70;99.90;;;;;;5013208;28;20030;-74
2021/11/14 03:38:35;;;;;;;129.00;61.28;;;2.70;99.90;;;;;;5013256;28;20025;-74
2021/11/14 03:41:06;;;;;;;131.20;60.38;;;2.70;99.90;;;;;;5013285;28;20056;-74
2021/11/14 03:43:34;;;;;;;129.20;61.08;;;2.70;99.90;;;;;;5012635;28;20032;-74
2021/11/14 03:46:00;;;;;;;127.85;58.33;;;2.70;99.90;;;;;;5012884;28;20081;-74
2021/11/14 03:48:26;;;;;;;133.65;64.20;;;2.70;99.90;;;;;;5013040;28;20018;-74
2021/11/14 03:50:53;;;;;;;141.43;73.55;;;2.70;99.90;;;;;;5013126;28;20026;-74
2021/11/14 03:53:20;;;;;;;167.40;87.10;;;2.60;99.90;;;;;;5011814;28;20028;-74
2021/11/14 03:55:46;;;;;;;188.38;95.88;;;2.60;99.90;;;;;;5015496;28;20674;-74
2021/11/14 03:58:12;;;;;;;133.10;68.53;;;2.70;99.90;;;;;;5032723;28;20040;-74
2021/11/14 04:00:44;;;;;;;132.18;63.33;;;2.60;99.90;;;;;;5031337;28;20665;-74
2021/11/14 04:03:11;;;;;;;131.52;60.85;;;2.60;99.90;;;;;;5032779;28;20028;-74
2021/11/14 04:05:36;;;;;;;123.38;60.08;;;2.70;99.90;;;;;;5032658;28;20024;-74
2021/11/14 04:08:08;;;;;;;136.10;63.85;;;2.70;99.90;;;;;;5032656;28;20022;-74
2021/11/14 04:10:34;;;;;;;130.20;59.15;;;2.70;99.90;;;;;;5031490;28;20034;-74
2021/11/14 04:13:00;;;;;;;130.85;62.60;;;2.70;99.90;;;;;;5032717;28;20028;-74
2021/11/14 04:15:25;;;;;;;127.30;62.55;;;2.70;99.90;;;;;;5032581;28;20108;-73
2021/11/14 04:17:55;;;;;;;133.75;63.58;;;2.70;99.90;;;;;;5032545;28;20495;-74
2021/11/14 04:20:26;;;;;;;126.07;64.05;;;2.70;99.90;;;;;;5031613;28;20450;-74
2021/11/14 04:22:52;;;;;;;121.60;59.60;;;2.70;99.90;;;;;;5032574;28;20025;-74
2021/11/14 04:25:18;;;;;;;121.82;59.50;;;2.80;99.90;;;;;;5032547;28;20402;-74
2021/11/14 04:27:43;;;;;;;118.25;59.13;;;2.80;99.90;;;;;;5032589;28;20033;-74
2021/11/14 04:30:09;;;;;;;134.93;61.40;;;2.80;99.90;;;;;;5032176;28;20033;-74
2021/11/14 04:32:35;;;;;;;126.53;61.22;;;2.80;99.90;;;;;;5031151;28;20116;-74
2021/11/14 04:35:01;;;;;;;114.43;56.65;;;2.80;99.90;;;;;;5030981;28;20033;-74
2021/11/14 04:37:27;;;;;;;111.97;54.33;;;2.80;99.90;;;;;;5032523;28;20079;-74
2021/11/14 04:39:53;;;;;;;116.20;55.83;;;2.80;99.90;;;;;;5031039;28;20124;-74
2021/11/14 04:42:19;;;;;;;122.45;60.70;;;2.80;99.90;;;;;;5032334;28;20026;-74
2021/11/14 04:44:45;;;;;;;103.22;55.03;;;2.80;99.90;;;;;;5032276;28;20080;-74
2021/11/14 04:47:10;;;;;;;116.93;55.90;;;2.80;99.90;;;;;;5032411;28;20466;-74
2021/11/14 04:49:36;;;;;;;112.30;55.47;;;2.90;99.90;;;;;;5030977;28;20112;-74
2021/11/14 04:52:04;;;;;;;121.47;59.97;;;2.90;99.90;;;;;;5032407;28;20032;-74
2021/11/14 04:54:30;;;;;;;119.13;55.63;;;2.90;99.90;;;;;;5032039;28;20048;-74
2021/11/14 04:56:55;;;;;;;113.88;55.78;;;2.90;99.90;;;;;;5034054;28;20025;-74
2021/11/14 04:59:21;;;;;;;116.25;60.22;;;2.90;99.90;;;;;;5035802;28;20033;-74
2021/11/14 05:01:47;;;;;;;110.93;52.45;;;2.90;99.90;;;;;;5035850;28;20534;-74
2021/11/14 05:04:13;;;;;;;110.68;53.17;;;3.00;99.90;;;;;;5035792;28;20056;-74
2021/11/14 05:06:38;;;;;;;110.50;53.88;;;3.00;99.90;;;;;;5035801;28;20471;-74
2021/11/14 05:09:04;;;;;;;104.43;50.00;;;2.90;99.90;;;;;;5035438;28;20442;-74
2021/11/14 05:11:30;;;;;;;106.68;50.63;;;3.00;99.90;;;;;;5035611;28;20025;-74
2021/11/14 05:13:56;;;;;;;98.28;47.95;;;3.00;99.90;;;;;;5034192;28;20033;-74
2021/11/14 05:16:22;;;;;;;96.60;48.83;;;3.00;99.90;;;;;;5035601;28;20082;-74
2021/11/14 05:18:47;;;;;;;105.53;47.28;;;3.00;99.90;;;;;;5035539;28;20022;-74
2021/11/14 05:21:14;;;;;;;100.68;48.70;;;3.00;99.90;;;;;;5035499;28;20097;-74
2021/11/14 05:23:39;;;;;;;104.40;47.55;;;3.00;99.90;;;;;;5035344;28;20033;-74
2021/11/14 05:26:05;;;;;;;108.80;49.45;;;3.00;99.90;;;;;;5034101;28;20163;-74
2021/11/14 05:28:32;;;;;;;100.35;46.50;;;3.00;99.90;;;;;;5035275;28;20017;-74
2021/11/14 05:30:58;;;;;;;98.60;44.80;;;3.00;99.90;;;;;;5032389;28;20060;-74
2021/11/14 05:33:24;;;;;;;100.68;46.85;;;2.90;99.90;;;;;;5032657;28;20490;-74
2021/11/14 05:35:50;;;;;;;92.95;45.50;;;3.00;99.90;;;;;;5031478;28;20496;-74
2021/11/14 05:38:17;;;;;;;107.97;49.45;;;3.00;99.90;;;;;;5034850;28;20021;-74
2021/11/14 05:40:43;;;;;;;113.93;49.38;;;3.00;99.90;;;;;;5034993;28;20021;-74
2021/11/14 05:43:09;;;;;;;105.72;50.20;;;3.00;99.90;;;;;;5034590;28;20075;-74
2021/11/14 05:45:35;;;;;;;101.88;45.90;;;3.00;99.90;;;;;;5024622;28;20037;-74
2021/11/14 05:48:02;;;;;;;101.65;50.33;;;3.00;99.90;;;;;;5025664;28;20818;-74
2021/11/14 05:50:28;;;;;;;109.40;46.08;;;3.00;99.90;;;;;;5021281;28;20021;-74
2021/11/14 05:52:54;;;;;;;92.47;43.80;;;3.00;99.90;;;;;;5022482;28;20032;-74
2021/11/14 05:55:20;;;;;;;108.68;49.63;;;3.10;99.90;;;;;;5022959;28;20030;-74
2021/11/14 06:00:27;;;;;;;106.63;47.72;;;3.10;99.90;;;;;;5020204;28;20024;-74
2021/11/14 06:03:03;;;;;;;92.70;46.40;;;3.10;99.90;;;;;;5020029;28;20026;-74
2021/11/14 06:05:33;;;;;;;92.60;45.45;;;3.10;99.90;;;;;;5017441;28;20052;-74
2021/11/14 06:07:58;;;;;;;102.10;48.22;;;3.10;99.90;;;;;;5016759;28;20065;-74
2021/11/14 06:10:24;;;;;;;94.32;48.33;;;3.10;99.90;;;;;;5026083;28;20463;-74
2021/11/14 06:12:50;;;;;;;94.07;46.13;;;3.10;99.90;;;;;;5027226;28;20048;-74
2021/11/14 06:15:18;;;;;;;99.90;45.25;;;3.10;99.90;;;;;;5026355;28;20049;-74
2021/11/14 06:17:44;;;;;;;90.63;45.40;;;3.10;99.90;;;;;;5024251;28;20117;-74
2021/11/14 06:20:10;;;;;;;93.00;46.65;;;3.20;99.90;;;;;;5024023;28;20443;-74
2021/11/14 06:22:36;;;;;;;93.90;47.63;;;3.20;99.90;;;;;;5024911;28;20021;-74
2021/11/14 06:25:02;;;;;;;98.93;46.20;;;3.20;99.90;;;;;;5027761;28;20029;-74
2021/11/14 06:27:28;;;;;;;99.65;44.97;;;3.20;99.90;;;;;;5022449;28;20014;-73
2021/11/14 06:29:54;;;;;;;93.97;44.15;;;3.20;99.90;;;;;;5024534;28;20030;-74
2021/11/14 06:32:20;;;;;;;87.40;42.13;;;3.30;99.90;;;;;;5027997;28;20120;-73
2021/11/14 06:34:45;;;;;;;97.63;47.80;;;3.30;99.90;;;;;;5029477;28;20302;-74
2021/11/14 06:37:11;;;;;;;95.50;42.65;;;3.30;99.90;;;;;;5026179;28;20108;-74
2021/11/14 06:39:38;;;;;;;93.70;41.88;;;3.30;99.90;;;;;;5022233;28;20028;-74
2021/11/14 06:42:05;;;;;;;95.72;46.03;;;3.30;99.90;;;;;;5023175;28;20383;-73
2021/11/14 06:44:31;;;;;;;92.13;44.60;;;3.30;99.90;;;;;;5023848;28;20442;-74
2021/11/14 06:46:56;;;;;;;86.13;41.63;;;3.40;99.90;;;;;;5029646;28;20104;-74
2021/11/14 06:49:23;;;;;;;82.05;40.95;;;3.40;99.90;;;;;;5022151;28;20029;-74
2021/11/14 06:51:49;;;;;;;84.28;40.38;;;3.40;99.90;;;;;;5019840;28;20014;-74
2021/11/14 06:54:15;;;;;;;99.43;47.25;;;3.40;99.90;;;;;;5020086;28;20535;-73
2021/11/14 06:56:40;;;;;;;97.70;47.47;;;3.40;99.90;;;;;;5034154;28;20525;-74
2021/11/14 06:59:06;;;;;;;100.65;46.88;;;3.40;99.90;;;;;;5018671;28;20018;-73
2021/11/14 07:01:32;;;;;;;104.55;48.08;;;3.40;99.90;;;;;;5018462;28;20067;-74
2021/11/14 07:03:57;;;;;;;96.88;47.72;;;3.40;99.90;;;;;;5018094;28;20117;-73
2021/11/14 07:06:23;;;;;;;88.57;45.25;;;3.40;99.90;;;;;;5018611;28;20026;-73
2021/11/14 07:08:49;;;;;;;82.97;42.00;;;3.40;99.90;;;;;;5018390;28;20079;-74
2021/11/14 07:11:17;;;;;;;90.22;43.28;;;3.40;99.90;;;;;;5024494;28;20373;-74
2021/11/14 07:13:43;;;;;;;92.85;42.78;;;3.40;99.90;;;;;;5023051;28;20030;-73
2021/11/14 07:16:09;;;;;;;73.78;40.03;;;3.50;99.90;;;;;;5026549;28;20030;-73
2021/11/14 07:18:34;;;;;;;78.75;39.13;;;3.50;99.90;;;;;;5024239;28;20024;-74
2021/11/14 07:21:00;;;;;;;84.32;41.97;;;3.50;99.90;;;;;;5021749;28;20505;-74
2021/11/14 07:23:25;;;;;;;84.88;41.75;;;3.50;99.90;;;;;;5021859;28;20519;-73
2021/11/14 07:25:52;;;;;;;87.18;40.13;;;3.50;99.90;;;;;;5024030;28;20017;-73
2021/11/14 07:28:17;;;;;;;82.75;39.60;;;3.60;99.90;;;;;;5024578;28;20041;-73
2021/11/14 07:30:43;;;;;;;84.28;40.22;;;3.60;99.90;;;;;;5027159;28;20025;-73
2021/11/14 07:33:09;;;;;;;70.15;37.20;;;3.60;99.90;;;;;;5020136;28;20527;-74
2021/11/14 07:35:36;;;;;;;67.97;35.83;;;3.70;99.90;;;;;;5026689;28;20518;-74
2021/11/14 07:38:02;;;;;;;66.57;33.22;;;3.70;99.90;;;;;;5019678;28;20021;-74
2021/11/14 07:40:28;;;;;;;56.33;32.85;;;3.70;99.90;;;;;;5022725;28;20033;-74
2021/11/14 07:42:55;;;;;;;61.80;32.05;;;3.80;99.90;;;;;;5019919;28;20566;-74
2021/11/14 07:45:21;;;;;;;53.15;28.38;;;3.80;99.90;;;;;;5021374;28;20059;-73
2021/11/14 07:47:48;;;;;;;52.13;26.95;;;3.80;99.90;;;;;;5023383;28;20022;-73
2021/11/14 07:50:15;;;;;;;52.58;26.83;;;3.90;99.90;;;;;;5016877;28;20030;-74
2021/11/14 07:52:42;;;;;;;56.30;29.25;;;4.00;99.90;;;;;;5017331;28;20506;-74
2021/11/14 07:55:08;;;;;;;84.55;37.15;;;4.00;99.90;;;;;;5019262;28;20037;-73
2021/11/14 07:57:35;;;;;;;99.07;46.80;;;4.00;99.90;;;;;;5020150;28;20033;-74
2021/11/14 08:00:04;;;;;;;76.68;37.90;;;4.10;99.90;;;;;;5023552;28;20056;-73
2021/11/14 08:02:29;;;;;;;73.85;36.33;;;4.10;99.90;;;;;;5024151;28;20024;-73
2021/11/14 08:04:55;;;;;;;62.25;33.45;;;4.20;99.90;;;;;;5017540;28;20427;-74
2021/11/14 08:07:21;;;;;;;59.92;30.52;;;4.20;99.90;;;;;;5021524;28;20496;-74
2021/11/14 08:09:46;;;;;;;59.83;29.90;;;4.30;99.90;;;;;;5019785;28;20042;-74
2021/11/14 08:12:12;;;;;;;63.20;32.53;;;4.30;99.90;;;;;;5024423;28;20022;-74
2021/11/14 08:14:38;;;;;;;58.38;27.33;;;4.40;99.90;;;;;;5028902;28;20037;-74
2021/11/14 08:17:04;;;;;;;57.33;28.45;;;4.40;99.90;;;;;;5029056;28;20064;-74
2021/11/14 08:19:29;;;;;;;52.53;26.58;;;4.40;99.90;;;;;;5028259;28;20025;-74
2021/11/14 08:21:55;;;;;;;50.53;25.50;;;4.50;99.90;;;;;;5032507;28;20028;-74
2021/11/14 08:24:21;;;;;;;51.42;26.60;;;4.50;99.90;;;;;;5031688;28;20394;-73
2021/11/14 08:26:46;;;;;;;55.17;29.45;;;4.60;99.90;;;;;;5032099;28;20021;-73
2021/11/14 08:29:12;;;;;;;54.28;28.02;;;4.60;99.90;;;;;;5032256;28;20034;-73
2021/11/14 08:31:38;;;;;;;54.50;27.58;;;4.70;99.90;;;;;;5034242;28;20036;-74
2021/11/14 08:34:06;;;;;;;48.20;25.08;;;4.70;99.90;;;;;;5036138;28;20037;-74
2021/11/14 08:36:32;;;;;;;45.42;22.10;;;4.70;99.90;;;;;;5036318;28;20502;-74
2021/11/14 08:38:58;;;;;;;54.72;26.13;;;4.70;99.90;;;;;;5036319;28;20018;-74
2021/11/14 08:41:26;;;;;;;48.95;23.95;;;4.80;99.90;;;;;;5034561;28;20052;-74
2021/11/14 08:43:52;;;;;;;41.80;20.48;;;4.80;99.90;;;;;;5035888;28;20032;-73
2021/11/14 08:46:18;;;;;;;49.58;21.70;;;4.80;99.90;;;;;;5028260;28;20026;-73
2021/11/14 08:48:44;;;;;;;42.97;23.83;;;4.80;99.90;;;;;;5026643;28;20514;-73
2021/11/14 08:51:11;;;;;;;41.55;22.15;;;4.90;99.90;;;;;;5025379;28;20021;-73
2021/11/14 08:53:37;;;;;;;44.83;23.98;;;4.90;99.90;;;;;;5026319;28;20368;-73
2021/11/14 08:56:03;;;;;;;64.55;30.00;;;4.90;99.90;;;;;;5020795;28;20033;-73
2021/11/14 08:58:34;;;;;;;68.88;32.80;;;4.90;99.90;;;;;;5023571;28;20016;-73
2021/11/14 09:01:03;;;;;;;44.47;23.33;;;5.00;99.90;;;;;;5020716;28;20541;-73
2021/11/14 09:03:28;;;;;;;42.45;21.42;;;5.00;99.90;;;;;;5026092;28;20018;-73
2021/11/14 09:05:54;;;;;;;44.00;21.80;;;5.00;99.90;;;;;;5025479;28;20032;-73
2021/11/14 09:08:20;;;;;;;43.35;21.77;;;5.00;99.90;;;;;;5022671;28;20041;-73
2021/11/14 09:10:45;;;;;;;40.55;22.10;;;5.00;99.90;;;;;;5022294;28;20052;-73
2021/11/14 09:13:13;;;;;;;44.88;21.27;;;5.00;99.90;;;;;;5020278;28;20369;-72
2021/11/14 09:15:38;;;;;;;42.50;20.65;;;5.10;99.90;;;;;;5026481;28;20114;-73
2021/11/14 09:18:04;;;;;;;45.60;22.52;;;5.00;99.90;;;;;;5033093;28;20107;-72
2021/11/14 09:20:30;;;;;;;176.20;74.38;;;5.10;99.90;;;;;;5024953;28;20022;-73
2021/11/14 09:22:57;;;;;;;48.53;24.58;;;5.10;99.90;;;;;;5022775;28;20444;-73
2021/11/14 09:25:22;;;;;;;46.08;22.73;;;5.10;99.90;;;;;;5020517;28;20056;-73
2021/11/14 09:27:49;;;;;;;46.03;22.17;;;5.20;99.90;;;;;;5020810;28;20042;-73
2021/11/14 09:30:16;;;;;;;40.42;20.95;;;5.30;99.90;;;;;;5021103;28;20471;-73
2021/11/14 09:32:42;;;;;;;42.17;21.48;;;5.30;99.90;;;;;;5025603;28;20014;-73
2021/11/14 09:35:08;;;;;;;40.92;21.05;;;5.40;99.90;;;;;;5022840;28;20548;-73
2021/11/14 09:37:34;;;;;;;38.08;20.75;;;5.50;99.90;;;;;;5019966;28;20080;-73
2021/11/14 09:40:00;;;;;;;41.88;21.52;;;5.50;99.90;;;;;;5023012;28;20026;-73
2021/11/14 09:42:27;;;;;;;47.15;22.48;;;5.50;99.90;;;;;;5021280;28;20046;-73
2021/11/14 09:44:56;;;;;;;46.33;23.85;;;5.50;99.90;;;;;;5023980;28;20391;-73
2021/11/14 09:47:22;;;;;;;43.53;22.00;;;5.50;99.90;;;;;;5021837;28;20345;-73
2021/11/14 09:49:48;;;;;;;35.28;18.40;;;5.60;99.90;;;;;;5022464;28;20044;-73
2021/11/14 09:52:14;;;;;;;32.50;18.73;;;5.60;99.90;;;;;;5023612;28;20018;-73
2021/11/14 09:54:40;;;;;;;36.97;19.70;;;5.70;99.90;;;;;;5035193;28;20053;-73
2021/11/14 09:57:06;;;;;;;44.47;21.27;;;5.70;99.90;;;;;;5019203;28;20014;-73
2021/11/14 09:59:32;;;;;;;29.92;18.10;;;5.70;99.90;;;;;;5017279;28;20018;-73
2021/11/14 10:02:01;;;;;;;36.50;19.50;;;5.80;99.90;;;;;;5018339;28;20025;-73
2021/11/14 10:04:27;;;;;;;39.33;22.85;;;5.80;99.90;;;;;;5031293;28;20322;-73
2021/11/14 10:07:03;;;;;;;43.28;20.83;;;5.80;99.90;;;;;;5017258;28;20072;-73
2021/11/14 10:09:35;;;;;;;45.35;28.90;;;5.80;99.90;;;;;;5018210;28;20145;-73
2021/11/14 10:12:24;;;;;;;53.13;30.38;;;5.80;99.90;;;;;;5020270;28;20026;-73
2021/11/14 10:15:04;;;;;;;45.00;22.92;;;5.80;99.90;;;;;;5019664;28;20175;-73
2021/11/14 10:17:30;;;;;;;41.00;21.77;;;5.90;99.90;;;;;;5019929;28;20026;-73
2021/11/14 10:20:26;;;;;;;56.35;34.72;;;5.90;99.90;;;;;;5021087;28;20029;-73
2021/11/14 10:22:55;;;;;;;43.65;21.85;;;6.00;99.90;;;;;;5021144;28;20018;-73
2021/11/14 10:25:22;;;;;;;39.40;23.48;;;5.90;99.90;;;;;;5021283;28;20053;-73
2021/11/14 10:27:56;;;;;;;37.15;19.48;;;6.00;99.90;;;;;;5021035;28;20018;-73
2021/11/14 10:30:25;;;;;;;45.60;29.33;;;6.10;99.90;;;;;;5023950;28;20109;-73
2021/11/14 10:32:54;;;;;;;43.35;23.67;;;6.10;99.90;;;;;;5019670;28;20017;-73
2021/11/14 10:35:21;;;;;;;38.95;20.83;;;6.20;99.90;;;;;;5019749;28;20041;-73
2021/11/14 10:37:47;;;;;;;36.13;19.23;;;6.20;99.90;;;;;;5018141;28;20044;-73
2021/11/14 10:40:25;;;;;;;46.95;28.05;;;6.20;99.90;;;;;;5021163;28;20013;-73
2021/11/14 10:42:55;;;;;;;42.22;25.80;;;6.10;99.90;;;;;;5019042;28;20021;-73
2021/11/14 10:45:21;;;;;;;36.53;21.90;;;6.20;99.90;;;;;;5019606;28;20026;-73
2021/11/14 10:48:13;;;;;;;36.55;18.13;;;6.20;99.90;;;;;;5016703;28;20104;-73
2021/11/14 10:50:42;;;;;;;36.25;19.08;;;6.30;99.90;;;;;;5018164;28;20021;-73
2021/11/14 10:53:10;;;;;;;37.10;19.63;;;6.40;99.90;;;;;;5019759;28;20018;-73
2021/11/14 10:55:52;;;;;;;44.13;23.80;;;6.40;99.90;;;;;;5020195;28;20037;-74
2021/11/14 10:58:21;;;;;;;36.00;19.42;;;6.40;99.90;;;;;;5020900;28;20080;-73
2021/11/14 11:00:49;;;;;;;34.83;18.98;;;6.40;99.90;;;;;;5021943;28;20030;-74
2021/11/14 11:03:15;;;;;;;28.92;17.42;;;6.40;99.90;;;;;;5019485;28;20511;-74
2021/11/14 11:05:41;;;;;;;32.72;17.90;;;6.30;99.90;;;;;;5026459;28;20018;-74
2021/11/14 11:08:10;;;;;;;29.95;16.27;;;6.30;99.90;;;;;;5021653;28;20586;-74
2021/11/14 11:10:42;;;;;;;31.38;16.98;;;6.30;99.90;;;;;;5021187;28;20038;-74
2021/11/14 11:13:30;;;;;;;38.67;20.52;;;6.30;99.90;;;;;;5025657;28;20406;-74
2021/11/14 11:16:01;;;;;;;34.92;17.85;;;6.30;99.90;;;;;;5022748;28;20459;-74
2021/11/14 11:18:27;;;;;;;34.97;19.50;;;6.30;99.90;;;;;;5025971;28;20053;-74
2021/11/14 11:20:55;;;;;;;37.40;20.05;;;6.30;99.90;;;;;;5022222;28;20068;-73
2021/11/14 11:23:23;;;;;;;48.95;23.90;;;6.30;99.90;;;;;;5025868;28;20170;-74
2021/11/14 11:25:54;;;;;;;65.63;31.92;;;6.30;99.90;;;;;;5019463;28;20076;-73
2021/11/14 11:28:31;;;;;;;65.45;31.77;;;6.30;99.90;;;;;;5018752;28;20029;-73
2021/11/14 11:31:01;;;;;;;65.28;31.75;;;6.30;99.90;;;;;;5017788;28;20030;-73
2021/11/14 11:33:29;;;;;;;69.28;33.67;;;6.40;99.90;;;;;;5024459;28;20044;-73
2021/11/14 11:35:55;;;;;;;105.53;55.30;;;6.40;99.90;;;;;;5020493;28;20072;-73
2021/11/14 11:38:21;;;;;;;69.15;35.97;;;6.40;99.90;;;;;;5026615;28;20380;-73
2021/11/14 11:40:48;;;;;;;55.55;28.50;;;6.40;99.90;;;;;;5024857;28;20471;-73
2021/11/14 11:43:14;;;;;;;44.25;26.67;;;6.40;99.90;;;;;;5023487;28;20025;-74
2021/11/14 11:45:44;;;;;;;41.97;24.35;;;6.30;99.90;;;;;;5021658;28;20121;-73
2021/11/14 11:48:34;;;;;;;39.78;21.58;;;6.40;99.90;;;;;;5023006;28;20032;-73
2021/11/14 11:51:28;;;;;;;39.17;20.95;;;6.40;99.90;;;;;;5023291;28;20083;-73
2021/11/14 11:54:05;;;;;;;50.42;26.17;;;6.30;99.90;;;;;;5024077;28;20476;-73
2021/11/14 11:56:41;;;;;;;49.40;23.70;;;6.30;99.90;;;;;;5024045;28;20021;-73
2021/11/14 11:59:35;;;;;;;62.92;28.55;;;6.30;99.90;;;;;;5025623;28;20127;-73
2021/11/14 12:02:06;;;;;;;41.95;21.23;;;6.30;99.90;;;;;;5021306;28;20032;-73
2021/11/14 12:04:40;;;;;;;38.33;20.75;;;6.30;99.90;;;;;;5022475;28;20421;-73
2021/11/14 12:07:16;;;;;;;38.88;21.80;;;6.20;99.90;;;;;;5022126;28;20379;-73
2021/11/14 12:09:45;;;;;;;37.08;20.38;;;6.20;99.90;;;;;;5031055;28;20021;-73
2021/11/14 12:12:19;;;;;;;34.65;18.50;;;6.20;99.90;;;;;;5032760;28;20017;-74
2021/11/14 12:14:45;;;;;;;38.72;21.23;;;6.10;99.90;;;;;;5022685;28;20041;-73
2021/11/14 12:17:11;;;;;;;35.75;18.77;;;6.00;99.90;;;;;;5029724;28;20022;-73
2021/11/14 12:19:40;;;;;;;43.63;23.80;;;6.00;99.90;;;;;;5029995;28;20418;-73
2021/11/14 12:22:13;;;;;;;40.25;23.70;;;6.00;99.90;;;;;;5023838;28;20026;-73
2021/11/14 12:24:57;;;;;;;40.70;21.23;;;6.00;99.90;;;;;;5032346;28;20033;-73
2021/11/14 12:27:33;;;;;;;46.80;23.10;;;6.10;99.90;;;;;;5038761;28;20487;-73
2021/11/14 12:30:04;;;;;;;49.92;27.60;;;6.00;99.90;;;;;;5026736;28;20017;-73
2021/11/14 12:32:42;;;;;;;54.92;28.67;;;6.00;99.90;;;;;;5021164;28;20483;-73
2021/11/14 12:35:17;;;;;;;53.85;27.23;;;5.90;99.90;;;;;;5034119;28;20088;-73
2021/11/14 12:37:52;;;;;;;61.20;35.25;;;5.70;99.90;;;;;;5035399;28;20018;-73
2021/11/14 12:40:25;;;;;;;58.80;33.35;;;5.70;99.90;;;;;;5031207;28;20475;-73